Terminal Aerodrome Forecast
Issued by NWS Wichita, KS

Home | Current Version | Previous Version | Text Only | Print | Product List | Glossary On
Versions: 1 2 3 4 5 6 7 8 9 10 11 12 13 14 15
000
FTUS43 KICT 060925 AAB
TAFICT
TAF AMD
KICT 060925Z 0609/0706 15013KT P6SM VCSH BKN007 BKN050
      TEMPO 0609/0611 -RA
     FM061500 17013KT 5SM RA OVC013=

USA.gov is the U.S. government's official web portal to all federal, state and local government web resources and services.